< < Back
Terminal Aerodrome Forecast


Current Version              Previous Versions:   1  2  3  4  5  6  7  8  9  

Terminal Aerodrome Forecast

985
FTUS44 KMOB 271100 RRA
TAFPNS
TAF
KPNS 271144Z 2712/2812 25005KT P6SM SKC
     FM271800 27006KT P6SM VCTS SCT030CB SCT250
     FM280000 22005KT P6SM SCT050=

Latest METAR

638
SAUS70 KWBC 280400 RRJ
MTRPNS
METAR KPNS 280353Z 25008KT 10SM CLR 27/24 A3004 RMK AO2 SLP172
T02720244


USA.gov is the U.S. government's official web portal to all federal, state and local government web resources and services.